Terminal Aerodrome Forecast
Issued by NWS

Current Version | Previous Version | Text Only | Print | Product List | Glossary Off
Versions: 1 2 3 4 5 6 7 8 9 10 11 12 13 14 15 16 17 18 19 20 21 22 23 24 25 26 27

000
FTUS41 KRLX 251900 AAA
TAFCKB
TAF AMD
KCKB 251905Z 2519/2618 23014G24KT P6SM BKN050
     FM260000 20009G17KT P6SM BKN050
     FM260100 19007KT P6SM BKN060
     FM260300 VRB03KT P6SM BKN040
     FM261500 21009G14KT P6SM BKN035=

USA.gov is the U.S. government's official web portal to all federal, state and local government web resources and services.